Latest Weather Observations for Flinders Island Airport

IDT60801

Issued at 4:51 am EDT Thursday 21 October 2021 (issued every 10 minutes, with the page automatically refreshed every 10 minutes)

About weather observations | Map of weather stations | Latest weather observations for TAS | Other Formats
Station Details ID: 099005 Name: FLINDERS ISLAND AIRPORT Lat: -40.09 Lon: 148.00 Height: 9.0 m
Data from the previous 72 hours. | See also: Recent months at Flinders Island Airport
Date/Time
EDT
Temp
°C
App
Temp
°C
Dew
Point
°C
Rel
Hum
%
Delta-T
°C
Wind Press
QNH
hPa
Press
MSL
hPa
Rain since
9am
mm
Dir  Spd
km/h
Gust
km/h
Spd
kts
Gust
kts
21/04:30am 13.9 10.9 13.7 99 0.1 ENE 22 33 12 18 1019.1 1019.1 0.0
21/04:21am 13.8 10.8 13.6 99 0.1 E 22 33 12 18 1019.0 1019.0 0.0
21/04:00am 13.6 10.4 13.1 97 0.3 ENE 22 33 12 18 1019.1 1019.1 0.0
21/03:30am 13.4 10.5 12.8 96 0.3 ENE 20 37 11 20 1019.4 1019.4 0.0
21/03:00am 13.3 10.3 12.7 96 0.3 ENE 20 28 11 15 1019.7 1019.7 0.0
21/02:30am 13.5 9.1 13.0 97 0.3 ENE 28 41 15 22 1020.0 1020.0 0.0
21/02:00am 13.4 9.4 12.9 97 0.3 ENE 26 37 14 20 1020.3 1020.3 0.0
21/01:30am 13.6 9.2 13.0 96 0.3 ENE 28 37 15 20 1020.7 1020.7 0.0
21/01:23am 13.7 10.1 13.2 97 0.3 ENE 24 32 13 17 1020.8 1020.8 0.0
21/01:00am 13.7 9.5 13.4 98 0.2 ENE 28 33 15 18 1021.3 1021.3 0.0
21/12:30am 13.6 10.8 13.3 98 0.2 ENE 20 26 11 14 1021.8 1021.8 0.0
21/12:00am 13.9 10.5 12.6 92 0.7 ENE 22 32 12 17 1022.1 1022.1 0.0
 
Date/Time
EDT
Temp
°C
App
Temp
°C
Dew
Point
°C
Rel
Hum
%
Delta-T
°C
Wind Press
QNH
hPa
Press
MSL
hPa
Rain since
9am
mm
Dir  Spd
km/h
Gust
km/h
Spd
kts
Gust
kts
20/11:39pm 13.9 10.8 12.3 90 0.9 ENE 20 32 11 17 1022.3 1022.3 0.0
20/11:30pm 13.8 10.8 12.0 89 1.0 ENE 19 26 10 14 1022.4 1022.4 0.0
20/11:00pm 13.6 10.6 11.8 89 1.0 E 19 30 10 16 1022.6 1022.6 0.0
20/10:30pm 13.5 10.2 11.7 89 1.0 ENE 20 32 11 17 1022.9 1022.9 0.0
20/10:00pm 13.3 9.2 11.4 88 1.0 ENE 24 35 13 19 1022.8 1022.8 0.0
20/09:30pm 12.9 9.1 11.1 89 0.9 ENE 22 33 12 18 1022.9 1022.9 0.0
20/09:00pm 13.0 9.2 11.1 88 1.0 ENE 22 35 12 19 1023.2 1023.2 0.0
20/08:30pm 13.2 9.6 11.8 91 0.7 ENE 22 32 12 17 1023.0 1023.0 0.0
20/08:16pm 13.3 9.5 12.4 94 0.5 ENE 24 33 13 18 1023.0 1023.0 0.0
20/08:00pm 13.3 10.6 13.0 98 0.2 ENE 19 28 10 15 1023.0 1023.0 0.0
20/07:30pm 13.7 10.6 12.3 91 0.8 E 20 32 11 17 1022.8 1022.8 0.0
20/07:04pm 14.0 10.8 11.9 87 1.1 E 20 32 11 17 1022.7 1022.7 0.0
20/07:00pm 14.1 10.5 11.8 86 1.2 E 22 32 12 17 1022.7 1022.7 0.0
20/06:30pm 14.4 11.1 11.6 83 1.5 E 20 30 11 16 1022.9 1022.9 0.0
20/06:00pm 14.4 10.6 11.0 80 1.8 E 22 35 12 19 1022.9 1022.9 0.0
20/05:30pm 14.5 10.5 10.5 77 2.1 E 22 33 12 18 1022.8 1022.8 0.0
20/05:00pm 14.5 10.6 10.7 78 2.0 E 22 32 12 17 1023.1 1023.1 0.0
20/04:30pm 14.5 10.0 10.1 75 2.3 E 24 33 13 18 1023.4 1023.4 0.0
20/04:00pm 14.6 10.0 9.8 73 2.5 E 24 35 13 19 1023.5 1023.5 0.0
20/03:30pm 14.9 10.4 9.9 72 2.6 E 24 35 13 19 1023.9 1023.9 0.0
20/03:00pm 15.1 9.4 9.9 71 2.7 E 30 39 16 21 1024.2 1024.2 0.0
20/02:30pm 15.3 9.5 9.4 68 3.0 E 30 39 16 21 1024.5 1024.5 0.0
20/02:00pm 16.2 10.9 9.8 66 3.3 E 28 43 15 23 1024.5 1024.5 0.0
20/01:32pm 15.4 10.0 9.5 68 3.0 E 28 46 15 25 1024.4 1024.4 0.0
20/01:30pm 15.0 9.0 8.7 66 3.2 E 30 46 16 25 1024.4 1024.4 0.0
20/01:28pm 15.4 9.9 9.3 67 3.1 E 28 46 15 25 1024.4 1024.4 0.0
20/01:00pm 15.9 10.8 9.1 64 3.5 E 26 39 14 21 1024.5 1024.5 0.0
20/12:31pm 14.7 8.3 8.6 67 3.1 E 32 50 17 27 1024.8 1024.8 0.0
20/12:30pm 14.7 8.1 8.6 67 3.1 E 33 50 18 27 1024.8 1024.8 0.0
20/12:03pm 14.9 9.4 9.1 68 3.0 E 28 46 15 25 1025.2 1025.2 0.0
20/12:00pm 14.7 9.5 8.9 68 2.9 E 26 41 14 22 1025.3 1025.3 0.0
20/11:30am 14.8 9.2 8.7 67 3.1 E 28 41 15 22 1025.7 1025.7 0.0
20/11:00am 14.9 9.3 8.6 66 3.2 E 28 41 15 22 1026.0 1026.0 0.0
20/10:30am 15.0 9.4 8.9 67 3.1 E 28 39 15 21 1026.0 1026.0 0.0
20/10:00am 14.2 8.6 8.6 69 2.8 ENE 28 41 15 22 1026.0 1026.0 0.0
20/09:30am 14.1 8.2 8.9 71 2.6 E 30 41 16 22 1026.1 1026.1 0.0
20/09:00am 13.8 8.6 8.8 72 2.5 E 26 39 14 21 1026.0 1026.0 1.0
20/08:30am 13.0 9.6 9.3 78 1.9 E 17 32 9 17 1026.2 1026.2 1.0
20/08:00am 12.5 8.6 8.8 78 1.8 E 19 28 10 15 1026.3 1026.3 1.0
20/07:30am 11.4 9.2 9.3 87 1.1 E 11 17 6 9 1026.5 1026.5 1.0
20/07:00am 7.7 5.4 7.6 99 0.0 ESE 9 11 5 6 1026.7 1026.7 1.0
20/06:30am 6.9 6.1 6.6 98 0.1 CALM 0 0 0 0 1026.6 1026.6 1.0
20/06:00am 5.9 3.4 4.7 92 0.5 ESE 7 11 4 6 1026.3 1026.3 1.0
20/05:30am 6.5 3.6 4.5 87 0.9 ESE 9 11 5 6 1026.2 1026.2 1.0
20/05:00am 8.5 6.5 6.1 85 1.1 E 6 9 3 5 1026.0 1026.0 1.0
20/04:30am 9.2 6.3 6.5 83 1.3 E 11 17 6 9 1025.6 1025.6 1.0
20/04:00am 10.2 7.6 7.6 84 1.2 E 11 17 6 9 1025.5 1025.5 1.0
20/03:30am 9.9 7.2 9.1 95 0.4 ESE 13 19 7 10 1025.8 1025.8 1.0
20/03:00am 10.3 7.5 8.7 90 0.8 SE 13 24 7 13 1026.1 1026.1 1.0
20/02:30am 10.2 6.8 9.1 93 0.5 ESE 17 26 9 14 1026.0 1026.0 1.0
20/02:00am 9.9 7.6 9.0 94 0.4 ESE 11 17 6 9 1026.9 1026.9 1.0
20/01:30am 10.3 8.3 8.7 90 0.8 ESE 9 11 5 6 1027.6 1027.6 1.0
20/01:00am 10.4 8.7 8.5 88 0.9 ESE 7 13 4 7 1028.1 1028.1 1.0
20/12:30am 10.5 8.4 8.3 86 1.1 SE 9 15 5 8 1027.4 1027.4 1.0
20/12:00am 10.6 8.1 8.2 85 1.2 ESE 11 17 6 9 1027.1 1027.1 1.0
 
Date/Time
EDT
Temp
°C
App
Temp
°C
Dew
Point
°C
Rel
Hum
%
Delta-T
°C
Wind Press
QNH
hPa
Press
MSL
hPa
Rain since
9am
mm
Dir  Spd
km/h
Gust
km/h
Spd
kts
Gust
kts
19/11:30pm 10.5 8.0 8.4 87 1.0 SE 11 19 6 10 1027.3 1027.3 1.0
19/11:00pm 10.4 8.1 7.5 82 1.4 ESE 9 17 5 9 1027.3 1027.3 1.0
19/10:30pm 10.9 6.6 7.2 78 1.8 ESE 19 28 10 15 1027.0 1027.0 1.0
19/10:00pm 11.1 6.9 7.6 79 1.7 ESE 19 37 10 20 1026.5 1026.5 1.0
19/09:30pm 11.0 6.9 7.7 80 1.6 ESE 19 33 10 18 1026.6 1026.6 1.0
19/09:00pm 11.2 7.5 8.1 81 1.5 ESE 17 28 9 15 1027.0 1027.0 1.0
19/08:30pm 11.3 7.6 7.8 79 1.7 ESE 17 28 9 15 1026.8 1026.8 1.0
19/08:00pm 11.4 8.0 7.7 78 1.8 SE 15 22 8 12 1026.5 1026.5 1.0
19/07:30pm 11.4 7.6 7.5 77 1.9 ESE 17 32 9 17 1026.0 1026.0 1.0
19/07:00pm 11.8 7.6 7.5 75 2.1 SE 19 30 10 16 1025.7 1025.7 1.0
19/06:30pm 12.3 8.0 7.8 74 2.2 SE 20 39 11 21 1025.3 1025.3 1.0
19/06:00pm 13.0 8.1 8.3 73 2.3 ESE 24 41 13 22 1024.8 1024.8 1.0
19/05:47pm 12.8 7.0 7.9 72 2.4 ESE 28 50 15 27 1024.7 1024.7 1.0
19/05:30pm 12.9 7.5 7.8 71 2.5 ESE 26 44 14 24 1024.4 1024.4 1.0
19/05:07pm 13.3 7.6 8.2 71 2.5 ESE 28 48 15 26 1024.4 1024.4 1.0
19/05:00pm 13.2 8.3 8.3 72 2.4 ESE 24 44 13 24 1024.4 1024.4 1.0
19/04:43pm 13.3 7.6 8.2 71 2.5 ESE 28 48 15 26 1024.2 1024.2 1.0
19/04:30pm 13.3 8.4 8.4 72 2.4 ESE 24 52 13 28 1024.1 1024.1 1.0
19/04:00pm 13.3 7.3 8.6 73 2.3 ESE 30 52 16 28 1023.8 1023.8 1.0
19/03:30pm 13.7 8.2 9.2 74 2.3 ESE 28 50 15 27 1023.8 1023.8 1.0
19/03:00pm 13.6 6.9 9.6 77 2.0 ESE 35 59 19 32 1023.7 1023.7 1.0
19/02:31pm 14.0 8.5 9.2 73 2.4 SE 28 48 15 26 1023.6 1023.6 1.0
19/02:30pm 14.2 9.2 9.4 73 2.5 SE 26 48 14 26 1023.6 1023.6 1.0
19/02:00pm 14.2 10.0 9.8 75 2.3 SE 22 44 12 24 1023.6 1023.6 1.0
19/01:35pm 12.8 7.5 9.8 82 1.5 SE 28 48 15 26 1023.5 1023.5 1.0
19/01:30pm 13.4 8.9 11.3 87 1.1 SE 26 44 14 24 1023.6 1023.6 1.0
19/01:03pm 12.8 7.9 11.4 91 0.7 SE 28 46 15 25 1023.3 1023.3 1.0
19/01:00pm 12.6 8.1 11.3 92 0.7 SE 26 44 14 24 1023.3 1023.3 1.0
19/12:40pm 12.8 8.7 11.4 91 0.7 SE 24 43 13 23 1023.1 1023.1 1.0
19/12:30pm 12.2 7.9 11.9 98 0.2 SE 26 50 14 27 1023.2 1023.2 1.0
19/12:18pm 11.8 7.1 10.5 92 0.7 ESE 26 48 14 26 1023.1 1023.1 0.6
19/12:00pm 12.4 8.0 10.5 88 1.0 SE 24 41 13 22 1023.0 1023.0 0.6
19/11:39am 11.8 8.0 11.2 96 0.3 SE 22 46 12 25 1023.0 1023.0 0.6
19/11:33am 11.5 7.3 11.0 97 0.3 SE 24 44 13 24 1023.1 1023.1 0.6
19/11:30am 11.6 7.5 11.4 99 0.1 SE 24 44 13 24 1023.2 1023.2 0.6
19/11:21am 11.3 8.0 11.0 98 0.2 SE 19 35 10 19 1023.3 1023.3 0.6
19/11:18am 11.3 7.8 10.8 97 0.3 SE 20 41 11 22 1023.2 1023.2 0.4
19/11:17am 11.4 7.9 10.9 97 0.3 SE 20 41 11 22 1023.2 1023.2 0.4
19/11:16am 11.4 7.9 10.9 97 0.3 SE 20 41 11 22 1023.2 1023.2 0.2
19/11:00am 11.7 7.6 11.4 98 0.2 SE 24 39 13 21 1023.0 1023.0 0.2
19/10:54am 11.5 8.0 11.0 97 0.3 SE 20 43 11 23 1022.9 1022.9 0.2
19/10:30am 12.0 8.3 11.4 96 0.3 SE 22 41 12 22 1022.5 1022.5 0.2
19/10:00am 12.2 8.3 12.0 99 0.1 SE 24 52 13 28 1022.1 1022.1 0.0
19/09:30am 11.8 8.5 11.6 99 0.1 SE 20 37 11 20 1021.4 1021.4 0.0
19/09:15am 11.5 8.1 11.3 99 0.1 SE 20 35 11 19 1021.0 1021.0 0.0
19/09:00am 11.4 7.6 11.2 99 0.1 SE 22 41 12 22 1020.7 1020.7 6.0
19/08:52am 11.4 8.0 11.2 99 0.1 SE 20 35 11 19 1020.5 1020.5 5.4
19/08:40am 11.5 8.0 10.9 96 0.3 SE 20 33 11 18 1020.5 1020.5 5.0
19/08:30am 11.8 8.2 10.5 92 0.7 SE 20 39 11 21 1020.3 1020.3 4.8
19/08:00am 11.8 8.1 10.2 90 0.8 SE 20 41 11 22 1019.4 1019.4 4.8
19/07:30am 11.1 7.1 10.5 96 0.3 SE 22 35 12 19 1018.8 1018.8 4.8
19/07:00am 10.9 8.3 10.7 99 0.1 SSE 15 24 8 13 1018.4 1018.3 4.8
19/06:30am 10.6 8.3 10.4 99 0.1 SSE 13 30 7 16 1018.0 1017.9 4.6
19/06:11am 10.5 8.2 10.3 99 0.1 SE 13 19 7 10 1017.8 1017.8 3.8
19/06:00am 10.5 7.8 10.3 99 0.1 SSE 15 26 8 14 1017.6 1017.6 3.4
19/05:58am 10.5 7.8 10.3 99 0.1 SSE 15 26 8 14 1017.6 1017.6 3.4
19/05:30am 10.8 5.7 10.6 99 0.1 S 28 39 15 21 1017.1 1017.1 3.2
19/05:26am 10.7 6.0 10.5 99 0.1 S 26 39 14 21 1017.1 1017.1 3.2
19/05:09am 10.4 7.2 9.9 97 0.3 SSE 17 32 9 17 1017.1 1017.1 2.8
19/05:00am 10.5 7.4 8.9 90 0.8 SSE 15 28 8 15 1017.0 1017.0 2.2
19/04:30am 10.6 7.8 8.5 87 1.0 SSE 13 24 7 13 1016.8 1016.8 2.2
19/04:00am 10.2 8.1 8.1 87 1.0 ESE 9 15 5 8 1016.5 1016.5 2.2
19/03:30am 9.9 6.9 7.8 87 1.0 SSE 13 22 7 12 1016.2 1016.2 2.2
19/03:00am 9.5 7.4 8.4 93 0.5 NE 9 11 5 6 1016.0 1016.0 2.2
19/02:30am 9.7 6.9 8.5 92 0.6 ESE 13 19 7 10 1016.1 1016.1 2.2
19/02:00am 9.6 7.8 9.5 99 0.0 SSE 9 13 5 7 1015.9 1015.9 2.2
19/01:30am 9.9 8.8 9.8 99 0.1 ESE 6 13 3 7 1015.9 1015.9 2.0
19/01:14am 10.2 8.2 10.1 99 0.1 ESE 11 17 6 9 1015.9 1015.9 2.0
19/01:00am 10.7 8.0 10.2 97 0.3 ESE 15 24 8 13 1015.7 1015.7 2.0
19/12:52am 11.0 8.2 9.9 93 0.6 ESE 15 28 8 15 1015.6 1015.6 1.6
19/12:30am 12.5 7.8 10.6 88 1.0 W 26 32 14 17 1015.2 1015.2 0.8
19/12:00am 12.1 9.0 10.3 89 0.9 W 17 26 9 14 1015.2 1015.2 0.8
 
Date/Time
EDT
Temp
°C
App
Temp
°C
Dew
Point
°C
Rel
Hum
%
Delta-T
°C
Wind Press
QNH
hPa
Press
MSL
hPa
Rain since
9am
mm
Dir  Spd
km/h
Gust
km/h
Spd
kts
Gust
kts
18/11:30pm 12.4 7.2 10.3 87 1.1 W 28 32 15 17 1015.3 1015.3 0.8
18/11:00pm 12.1 7.6 10.2 88 1.0 W 24 33 13 18 1015.0 1015.0 0.8
18/10:30pm 12.1 7.6 10.0 87 1.1 W 24 33 13 18 1014.8 1014.8 0.8
18/10:00pm 12.1 5.8 9.1 82 1.5 W 32 39 17 21 1014.6 1014.6 0.8
18/09:30pm 12.1 5.7 9.5 84 1.3 W 33 43 18 23 1014.1 1014.1 0.8
18/09:28pm 12.0 5.7 9.6 85 1.2 W 33 43 18 23 1014.1 1014.1 0.8
18/09:00pm 12.1 7.9 11.2 94 0.5 W 24 32 13 17 1013.8 1013.8 0.8
18/08:47pm 11.7 7.4 10.9 95 0.4 WNW 24 30 13 16 1013.6 1013.6 0.8
18/08:30pm 11.5 7.2 10.9 96 0.3 WNW 24 30 13 16 1013.3 1013.3 0.8
18/08:00pm 11.6 8.1 10.8 95 0.4 WNW 20 30 11 16 1013.0 1013.0 0.8
18/07:30pm 11.4 7.9 10.8 96 0.3 WNW 20 32 11 17 1012.6 1012.6 0.8
18/07:00pm 11.4 7.1 10.8 96 0.3 NW 24 33 13 18 1012.3 1012.3 0.6
18/06:30pm 11.4 7.0 10.3 93 0.6 WNW 24 33 13 18 1012.4 1012.4 0.4
18/06:00pm 11.7 8.2 10.3 91 0.7 WNW 19 26 10 14 1012.3 1012.3 0.2
18/05:30pm 12.8 7.3 9.3 79 1.8 W 28 35 15 19 1012.0 1012.0 0.0
18/05:00pm 13.1 9.3 9.9 81 1.6 W 20 28 11 15 1011.7 1011.7 0.0
18/04:30pm 13.3 8.3 10.8 85 1.3 WSW 28 33 15 18 1011.6 1011.6 0.0
18/04:00pm 13.7 7.8 10.3 80 1.8 W 32 37 17 20 1011.8 1011.8 0.0
18/03:30pm 14.1 8.0 9.9 76 2.2 W 32 41 17 22 1011.5 1011.5 0.0
18/03:00pm 15.9 11.6 11.9 77 2.2 WNW 26 33 14 18 1011.2 1011.2 0.0
18/02:30pm 15.4 11.2 11.0 75 2.3 WNW 24 32 13 17 1011.1 1011.1 0.0
18/02:00pm 16.4 11.7 10.5 68 3.1 WNW 26 32 14 17 1011.0 1011.0 0.0
18/01:30pm 16.6 12.3 10.7 68 3.1 W 24 30 13 16 1011.0 1011.0 0.0
18/01:00pm 16.8 12.8 10.4 66 3.4 WNW 22 30 12 16 1011.1 1011.1 0.0
18/12:30pm 16.1 11.6 10.0 67 3.2 WNW 24 32 13 17 1011.3 1011.3 0.0
18/12:00pm 16.2 12.1 11.4 73 2.6 W 24 32 13 17 1011.7 1011.7 0.0
18/11:30am 16.0 12.2 11.0 72 2.7 WNW 22 28 12 15 1011.9 1011.9 0.0
18/11:00am 15.7 11.4 10.7 72 2.7 WNW 24 30 13 16 1012.1 1012.1 0.0
18/10:30am 15.4 11.1 10.8 74 2.4 NW 24 32 13 17 1012.4 1012.4 0.0
18/10:00am 14.8 10.4 9.0 68 3.0 NW 22 30 12 16 1012.5 1012.5 0.0
18/09:30am 13.9 9.1 10.3 79 1.9 NW 26 32 14 17 1012.5 1012.5 0.0
18/09:00am 13.7 9.4 10.9 83 1.5 NW 24 32 13 17 1012.2 1012.2 0.0
18/08:30am 13.4 10.0 11.3 87 1.1 NW 20 28 11 15 1012.2 1012.2 0.0
18/08:00am 12.7 10.3 10.1 84 1.3 NNW 13 17 7 9 1012.0 1012.0 0.0
18/07:30am 12.5 9.7 9.9 84 1.3 NW 15 19 8 10 1012.0 1012.0 0.0
18/07:00am 12.3 9.6 10.5 89 0.9 NNW 15 22 8 12 1011.8 1011.8 0.0
18/06:30am 12.1 9.8 10.3 89 0.9 NNW 13 17 7 9 1011.6 1011.6 0.0
18/06:00am 12.1 10.1 10.3 89 0.9 NNW 11 17 6 9 1011.4 1011.4 0.0
18/05:30am 11.9 9.5 10.1 89 0.9 NNW 13 19 7 10 1011.4 1011.4 0.0
18/05:00am 12.0 9.1 9.7 86 1.2 NW 15 19 8 10 1011.5 1011.5 0.0

Other formats

Comma delimited format used in spreadsheet applications
http://www.bom.gov.au/fwo/IDT60801/IDT60801.94980.axf

JavaScript Object Notation format (JSON) in row-major order
http://www.bom.gov.au/fwo/IDT60801/IDT60801.94980.json

Data quality

Most of these data are generated automatically and are frequently updated. Quality checks on data are not normally performed. It is possible for incorrect values to appear. Refer to information at About Latest Weather Observations and please check the disclaimer before using these data.